Time;durP1;ratioP1;P1;durP2;ratioP2;P2;SDS_P1;SDS_P2;PMS_P1;PMS_P2;Temp;Humidity;BMP_temperature;BMP_pressure;BME280_temperature;BME280_humidity;BME280_pressure;Samples;Min_cycle;Max_cycle;Signal;HPM_P1;HPM_P2
2021/07/05 00:00:58;;;;;;;18.85;13.30;;;;;;;;;;4950003;28;20110;-85
2021/07/05 00:03:24;;;;;;;18.52;12.98;;;;;;;;;;4949538;28;20503;-87
2021/07/05 00:05:51;;;;;;;13.68;11.05;;;;;;;;;;4939781;28;20513;-87
2021/07/05 00:08:17;;;;;;;10.93;9.82;;;;;;;;;;4948566;28;20047;-85
2021/07/05 00:10:44;;;;;;;11.75;10.15;;;;;;;;;;4949396;28;20191;-83
2021/07/05 00:13:10;;;;;;;13.80;10.73;;;;;;;;;;4948481;28;20573;-85
2021/07/05 00:15:37;;;;;;;15.50;11.15;;;;;;;;;;4948376;28;20051;-85
2021/07/05 00:18:05;;;;;;;12.80;8.98;;;;;;;;;;4950266;28;20048;-85
2021/07/05 00:20:33;;;;;;;8.45;7.65;;;;;;;;;;4948938;28;20043;-84
2021/07/05 00:23:00;;;;;;;10.30;8.65;;;;;;;;;;4946316;28;20414;-85
2021/07/05 00:25:26;;;;;;;9.18;8.27;;;;;;;;;;4941732;28;20059;-87
2021/07/05 00:27:52;;;;;;;9.23;8.32;;;;;;;;;;4948337;28;20499;-84
2021/07/05 00:30:21;;;;;;;8.85;7.95;;;;;;;;;;4948688;28;20116;-85
2021/07/05 00:32:47;;;;;;;9.82;8.82;;;;;;;;;;4950326;28;20089;-84
2021/07/05 00:35:14;;;;;;;9.05;8.15;;;;;;;;;;4952067;28;20043;-84
2021/07/05 00:37:40;;;;;;;9.05;8.15;;;;;;;;;;4950950;28;20062;-84
2021/07/05 00:40:07;;;;;;;9.77;8.85;;;;;;;;;;4952564;28;20059;-85
2021/07/05 00:42:34;;;;;;;9.40;8.48;;;;;;;;;;4952498;28;20051;-84
2021/07/05 00:45:01;;;;;;;9.85;8.75;;;;;;;;;;4951667;28;20050;-84
2021/07/05 00:47:27;;;;;;;9.27;8.38;;;;;;;;;;4952131;28;20059;-85
2021/07/05 00:49:53;;;;;;;10.20;9.15;;;;;;;;;;4953127;28;20110;-84
2021/07/05 00:52:19;;;;;;;10.35;9.35;;;;;;;;;;4951488;28;20066;-84
2021/07/05 00:54:45;;;;;;;12.52;9.80;;;;;;;;;;4948863;28;20054;-84
2021/07/05 00:57:24;;;;;;;14.50;11.90;;;;;;;;;;4932362;29;20480;-85
2021/07/05 00:59:51;;;;;;;13.25;11.00;;;;;;;;;;4932485;29;20051;-85
2021/07/05 01:02:20;;;;;;;13.05;11.18;;;;;;;;;;4948211;28;20059;-86
2021/07/05 01:04:46;;;;;;;18.45;14.00;;;;;;;;;;4950671;28;20046;-85
2021/07/05 01:07:13;;;;;;;18.75;14.00;;;;;;;;;;4965291;28;20054;-86
2021/07/05 01:09:39;;;;;;;14.65;11.60;;;;;;;;;;4969012;28;20057;-84
2021/07/05 01:12:06;;;;;;;13.98;11.90;;;;;;;;;;4971326;28;20050;-86
2021/07/05 01:14:32;;;;;;;18.77;14.15;;;;;;;;;;4968039;28;20047;-86
2021/07/05 01:16:59;;;;;;;17.13;13.20;;;;;;;;;;4949769;28;20183;-86
2021/07/05 01:19:26;;;;;;;16.15;13.38;;;;;;;;;;4952186;28;20051;-87
2021/07/05 01:21:53;;;;;;;18.73;14.70;;;;;;;;;;4939914;28;20076;-85
2021/07/05 01:24:20;;;;;;;18.23;14.32;;;;;;;;;;4933369;28;20138;-85
2021/07/05 01:26:46;;;;;;;19.48;14.63;;;;;;;;;;4931171;29;20560;-86
2021/07/05 01:29:12;;;;;;;18.55;14.10;;;;;;;;;;4933059;28;20106;-86
2021/07/05 01:31:39;;;;;;;19.27;15.02;;;;;;;;;;4932929;28;20059;-84
2021/07/05 01:34:05;;;;;;;23.15;16.60;;;;;;;;;;4951887;28;20055;-86
2021/07/05 01:36:32;;;;;;;24.10;16.63;;;;;;;;;;4931292;29;20060;-86
2021/07/05 01:38:58;;;;;;;21.02;15.52;;;;;;;;;;4933156;29;20142;-85
2021/07/05 01:41:24;;;;;;;19.40;13.95;;;;;;;;;;4931543;29;20066;-88
2021/07/05 01:43:51;;;;;;;17.40;14.35;;;;;;;;;;4932609;29;20075;-84
2021/07/05 01:46:17;;;;;;;17.55;13.70;;;;;;;;;;4931775;29;20087;-85
2021/07/05 01:48:46;;;;;;;16.48;12.95;;;;;;;;;;4930828;29;20495;-85
2021/07/05 01:51:13;;;;;;;14.35;11.52;;;;;;;;;;4932614;28;20054;-85
2021/07/05 01:53:39;;;;;;;14.25;12.60;;;;;;;;;;4931817;28;20055;-85
2021/07/05 01:56:05;;;;;;;14.32;11.32;;;;;;;;;;4939712;28;20056;-85
2021/07/05 01:58:32;;;;;;;17.73;13.05;;;;;;;;;;4936411;28;20079;-85
2021/07/05 02:00:59;;;;;;;18.55;13.00;;;;;;;;;;4944221;28;20076;-85
2021/07/05 02:03:25;;;;;;;14.88;12.07;;;;;;;;;;4932054;28;20047;-87
2021/07/05 02:05:51;;;;;;;15.35;12.68;;;;;;;;;;4934561;28;20043;-85
2021/07/05 02:08:22;;;;;;;16.38;12.82;;;;;;;;;;4951437;28;20436;-85
2021/07/05 02:10:51;;;;;;;14.38;12.05;;;;;;;;;;4950545;28;20067;-85
2021/07/05 02:13:27;;;;;;;13.75;12.23;;;;;;;;;;4950200;28;20090;-85
2021/07/05 02:15:54;;;;;;;15.90;11.90;;;;;;;;;;4950122;28;20055;-84
2021/07/05 02:18:20;;;;;;;12.60;11.20;;;;;;;;;;4951366;28;20074;-85
2021/07/05 02:20:47;;;;;;;16.08;12.48;;;;;;;;;;4949522;28;20066;-85
2021/07/05 02:23:14;;;;;;;11.05;9.90;;;;;;;;;;4938754;28;20056;-85
2021/07/05 02:25:41;;;;;;;11.50;9.68;;;;;;;;;;4931392;29;20051;-85
2021/07/05 02:28:09;;;;;;;13.60;10.98;;;;;;;;;;4933412;28;20055;-85
2021/07/05 02:30:39;;;;;;;10.98;9.20;;;;;;;;;;4949881;28;20098;-84
2021/07/05 02:33:05;;;;;;;12.73;10.35;;;;;;;;;;4951701;28;20380;-85
2021/07/05 02:35:35;;;;;;;11.90;9.55;;;;;;;;;;4950462;28;20075;-85
2021/07/05 02:38:03;;;;;;;11.65;9.70;;;;;;;;;;4951137;28;20063;-84
2021/07/05 02:40:31;;;;;;;12.02;10.77;;;;;;;;;;4948772;28;20059;-87
2021/07/05 02:42:58;;;;;;;11.25;10.05;;;;;;;;;;4950317;28;20051;-85
2021/07/05 02:45:25;;;;;;;13.25;11.50;;;;;;;;;;4934841;28;20115;-85
2021/07/05 02:47:55;;;;;;;13.38;10.60;;;;;;;;;;4931117;29;20047;-85
2021/07/05 02:50:22;;;;;;;14.85;11.57;;;;;;;;;;4930626;29;20445;-85
2021/07/05 02:52:49;;;;;;;16.38;13.13;;;;;;;;;;4929652;28;20082;-85
2021/07/05 02:55:16;;;;;;;12.50;11.20;;;;;;;;;;4929934;29;20451;-85
2021/07/05 02:57:45;;;;;;;15.75;11.95;;;;;;;;;;4929686;29;20060;-84
2021/07/05 03:00:19;;;;;;;17.48;13.10;;;;;;;;;;4930441;28;20074;-84
2021/07/05 03:02:46;;;;;;;18.83;13.68;;;;;;;;;;4942535;28;20180;-85
2021/07/05 03:05:13;;;;;;;15.30;12.00;;;;;;;;;;4950323;28;20044;-84
2021/07/05 03:07:39;;;;;;;16.58;12.57;;;;;;;;;;4961913;28;20047;-83
2021/07/05 03:10:10;;;;;;;14.15;12.43;;;;;;;;;;4941491;28;20063;-84
2021/07/05 03:12:36;;;;;;;17.13;13.52;;;;;;;;;;4931262;28;20052;-84
2021/07/05 03:15:03;;;;;;;15.95;12.10;;;;;;;;;;4947452;28;20051;-84
2021/07/05 03:17:29;;;;;;;15.48;11.95;;;;;;;;;;4939621;28;20063;-88
2021/07/05 03:19:55;;;;;;;16.45;13.05;;;;;;;;;;4949221;28;20631;-84
2021/07/05 03:22:22;;;;;;;13.73;11.82;;;;;;;;;;4949366;28;20408;-84
2021/07/05 03:24:48;;;;;;;13.52;11.20;;;;;;;;;;4949619;28;20055;-84
2021/07/05 03:27:14;;;;;;;13.23;10.93;;;;;;;;;;4950344;28;20070;-84
2021/07/05 03:29:40;;;;;;;13.40;10.40;;;;;;;;;;4947820;28;20083;-83
2021/07/05 03:32:07;;;;;;;13.40;11.25;;;;;;;;;;4950638;28;20039;-84
2021/07/05 03:34:34;;;;;;;12.65;10.30;;;;;;;;;;4947563;28;20138;-83
2021/07/05 03:37:00;;;;;;;14.77;12.05;;;;;;;;;;4965252;28;20048;-85
2021/07/05 03:39:27;;;;;;;15.73;11.80;;;;;;;;;;4951099;28;20083;-85
2021/07/05 03:41:53;;;;;;;14.68;11.20;;;;;;;;;;4930608;28;20055;-83
2021/07/05 03:44:19;;;;;;;14.13;11.35;;;;;;;;;;4931073;29;20459;-84
2021/07/05 03:46:46;;;;;;;13.63;11.63;;;;;;;;;;4929097;29;20047;-83
2021/07/05 03:49:12;;;;;;;14.00;11.77;;;;;;;;;;4929928;29;20452;-84
2021/07/05 03:51:38;;;;;;;15.63;11.82;;;;;;;;;;4928872;29;20052;-83
2021/07/05 03:54:05;;;;;;;17.33;11.52;;;;;;;;;;4931386;28;20083;-84
2021/07/05 03:56:31;;;;;;;14.13;11.05;;;;;;;;;;4935291;28;20074;-88
2021/07/05 03:58:57;;;;;;;14.60;11.45;;;;;;;;;;4948819;28;20055;-84
2021/07/05 04:01:24;;;;;;;14.95;12.05;;;;;;;;;;4948724;28;20488;-84
2021/07/05 04:03:50;;;;;;;15.48;12.05;;;;;;;;;;4949111;28;20217;-83
2021/07/05 04:06:16;;;;;;;16.10;11.93;;;;;;;;;;4944333;28;20052;-84
2021/07/05 04:08:42;;;;;;;16.08;11.90;;;;;;;;;;4933629;28;20055;-84
2021/07/05 04:11:09;;;;;;;15.02;11.98;;;;;;;;;;4949444;28;20061;-84
2021/07/05 04:13:35;;;;;;;16.73;12.02;;;;;;;;;;4953295;28;20059;-84
2021/07/05 04:16:01;;;;;;;15.32;11.70;;;;;;;;;;4952714;28;20043;-84
2021/07/05 04:18:28;;;;;;;16.70;12.63;;;;;;;;;;4952270;28;20551;-83
2021/07/05 04:20:54;;;;;;;17.40;12.48;;;;;;;;;;4952661;28;20499;-85
2021/07/05 04:23:24;;;;;;;14.15;11.63;;;;;;;;;;4968728;28;20147;-84
2021/07/05 04:25:50;;;;;;;18.90;13.07;;;;;;;;;;4967948;28;20664;-84
2021/07/05 04:28:17;;;;;;;16.33;12.48;;;;;;;;;;4953346;28;20059;-85
2021/07/05 04:30:43;;;;;;;17.63;12.60;;;;;;;;;;4952662;28;20078;-85
2021/07/05 04:33:09;;;;;;;19.35;14.55;;;;;;;;;;4968267;28;20086;-85
2021/07/05 04:35:35;;;;;;;16.90;12.98;;;;;;;;;;4953013;28;20508;-84
2021/07/05 04:38:02;;;;;;;20.02;14.32;;;;;;;;;;4951840;28;20043;-83
2021/07/05 04:40:29;;;;;;;15.68;12.88;;;;;;;;;;4933540;28;20123;-83
2021/07/05 04:42:55;;;;;;;19.05;14.20;;;;;;;;;;4933129;28;20075;-82
2021/07/05 04:45:25;;;;;;;16.92;14.15;;;;;;;;;;4946384;28;20107;-83
2021/07/05 04:47:52;;;;;;;21.23;15.23;;;;;;;;;;4951667;28;20407;-83
2021/07/05 04:50:19;;;;;;;18.85;14.50;;;;;;;;;;4952308;28;20122;-82
2021/07/05 04:52:45;;;;;;;18.42;13.82;;;;;;;;;;4953058;28;20109;-83
2021/07/05 04:55:12;;;;;;;16.58;13.50;;;;;;;;;;4953306;28;20078;-83
2021/07/05 04:57:39;;;;;;;14.45;12.40;;;;;;;;;;4952793;28;20058;-83
2021/07/05 05:00:07;;;;;;;17.17;13.45;;;;;;;;;;4953851;28;20055;-83
2021/07/05 05:02:34;;;;;;;14.77;12.85;;;;;;;;;;4952685;28;20078;-83
2021/07/05 05:05:00;;;;;;;15.38;12.80;;;;;;;;;;4953042;28;20518;-83
2021/07/05 05:07:32;;;;;;;17.52;13.93;;;;;;;;;;4950530;28;20061;-84
2021/07/05 05:10:01;;;;;;;15.48;13.70;;;;;;;;;;4951347;28;20059;-83
2021/07/05 05:12:28;;;;;;;13.75;12.35;;;;;;;;;;4953193;28;20055;-83
2021/07/05 05:14:54;;;;;;;15.05;12.98;;;;;;;;;;4951008;28;20058;-82
2021/07/05 05:17:21;;;;;;;15.23;12.73;;;;;;;;;;4951172;28;20055;-83
2021/07/05 05:19:47;;;;;;;15.68;13.77;;;;;;;;;;4951880;28;20135;-83
2021/07/05 05:22:14;;;;;;;16.83;14.32;;;;;;;;;;4952741;28;20395;-83
2021/07/05 05:24:40;;;;;;;15.10;13.50;;;;;;;;;;4950676;28;20058;-83
2021/07/05 05:27:07;;;;;;;16.67;14.45;;;;;;;;;;4953473;28;20062;-83
2021/07/05 05:29:33;;;;;;;16.75;14.93;;;;;;;;;;4949697;29;20105;-83
2021/07/05 05:32:00;;;;;;;17.35;15.48;;;;;;;;;;4951383;28;20511;-83
2021/07/05 05:34:26;;;;;;;18.92;14.95;;;;;;;;;;4947759;28;20058;-83
2021/07/05 05:36:52;;;;;;;17.98;16.10;;;;;;;;;;4932912;28;20313;-83
2021/07/05 05:39:18;;;;;;;16.33;14.27;;;;;;;;;;4933130;28;20504;-82
2021/07/05 05:41:45;;;;;;;16.63;14.82;;;;;;;;;;4932915;28;20121;-83
2021/07/05 05:44:11;;;;;;;15.52;13.93;;;;;;;;;;4932087;29;20139;-82
2021/07/05 05:46:37;;;;;;;17.27;15.40;;;;;;;;;;4932495;29;20055;-83
2021/07/05 05:49:04;;;;;;;18.70;15.65;;;;;;;;;;4932088;29;20062;-83
2021/07/05 05:51:35;;;;;;;18.25;15.40;;;;;;;;;;4931760;29;20055;-83
2021/07/05 05:54:02;;;;;;;18.10;15.25;;;;;;;;;;4933178;28;20055;-83
2021/07/05 05:56:31;;;;;;;19.40;16.25;;;;;;;;;;4932740;28;20059;-83
2021/07/05 05:59:00;;;;;;;17.75;14.30;;;;;;;;;;4931096;29;20081;-83
2021/07/05 06:01:28;;;;;;;16.60;14.07;;;;;;;;;;4932741;28;20524;-83
2021/07/05 06:03:55;;;;;;;18.88;13.80;;;;;;;;;;4950337;28;20480;-83
2021/07/05 06:06:21;;;;;;;19.55;14.40;;;;;;;;;;4959450;28;20059;-83
2021/07/05 06:08:47;;;;;;;17.48;13.90;;;;;;;;;;4969522;28;20054;-84
2021/07/05 06:11:13;;;;;;;19.13;13.65;;;;;;;;;;4969566;28;20066;-84
2021/07/05 06:13:40;;;;;;;15.02;10.30;;;;;;;;;;4963790;28;20051;-83
2021/07/05 06:16:07;;;;;;;15.60;8.23;;;;;;;;;;4967252;28;20077;-83
2021/07/05 06:18:33;;;;;;;15.45;8.05;;;;;;;;;;4966188;28;20051;-83
2021/07/05 06:20:59;;;;;;;15.25;8.55;;;;;;;;;;4951420;28;20075;-85
2021/07/05 06:23:27;;;;;;;18.17;9.27;;;;;;;;;;4931377;29;20056;-83
2021/07/05 06:25:54;;;;;;;12.10;6.35;;;;;;;;;;4931879;28;20408;-84
2021/07/05 06:28:21;;;;;;;16.20;6.88;;;;;;;;;;4931214;29;20064;-84
2021/07/05 06:30:47;;;;;;;15.00;7.10;;;;;;;;;;4931139;29;20106;-84
2021/07/05 06:33:14;;;;;;;11.10;5.63;;;;;;;;;;4931218;28;20059;-84
2021/07/05 06:35:41;;;;;;;10.60;6.75;;;;;;;;;;4945355;28;20058;-85
2021/07/05 06:38:07;;;;;;;9.90;5.32;;;;;;;;;;4932884;28;20079;-84
2021/07/05 06:40:34;;;;;;;6.13;4.18;;;;;;;;;;4932228;29;20408;-84
2021/07/05 06:43:00;;;;;;;9.07;3.30;;;;;;;;;;4930735;29;20522;-84
2021/07/05 06:45:26;;;;;;;6.40;3.58;;;;;;;;;;4930600;28;20473;-84
2021/07/05 06:47:52;;;;;;;12.18;4.10;;;;;;;;;;4931579;28;20047;-84
2021/07/05 06:50:19;;;;;;;6.70;4.22;;;;;;;;;;4932185;28;20416;-84
2021/07/05 06:52:45;;;;;;;8.10;4.28;;;;;;;;;;4931363;28;20129;-84
2021/07/05 06:55:12;;;;;;;7.95;4.00;;;;;;;;;;4932054;28;20093;-84
2021/07/05 06:57:39;;;;;;;9.98;4.13;;;;;;;;;;4930856;29;20051;-84
2021/07/05 07:00:09;;;;;;;8.55;4.60;;;;;;;;;;4950189;28;20055;-85
2021/07/05 07:02:36;;;;;;;9.70;4.90;;;;;;;;;;4950946;28;20066;-89
2021/07/05 07:05:04;;;;;;;10.55;5.28;;;;;;;;;;4949139;28;20403;-84
2021/07/05 07:07:31;;;;;;;7.40;5.40;;;;;;;;;;4967622;28;20050;-84
2021/07/05 07:09:57;;;;;;;9.30;5.22;;;;;;;;;;4961090;28;20496;-84
2021/07/05 07:12:23;;;;;;;8.02;4.22;;;;;;;;;;4949690;28;20055;-84
2021/07/05 07:14:49;;;;;;;6.68;4.68;;;;;;;;;;4950428;28;20053;-85
2021/07/05 07:17:22;;;;;;;8.90;4.82;;;;;;;;;;4946604;28;20130;-84
2021/07/05 07:19:48;;;;;;;6.25;4.70;;;;;;;;;;4950402;28;20054;-84
2021/07/05 07:22:15;;;;;;;7.95;4.90;;;;;;;;;;4965628;28;20106;-86
2021/07/05 07:24:41;;;;;;;9.43;5.07;;;;;;;;;;4949383;28;20051;-85
2021/07/05 07:27:08;;;;;;;7.28;5.40;;;;;;;;;;4951436;28;20055;-84
2021/07/05 07:29:34;;;;;;;9.43;5.50;;;;;;;;;;4949699;29;20138;-84
2021/07/05 07:32:00;;;;;;;8.48;5.43;;;;;;;;;;4948922;28;20134;-86
2021/07/05 07:34:26;;;;;;;11.20;6.43;;;;;;;;;;4950735;28;20047;-86
2021/07/05 07:36:55;;;;;;;12.60;6.55;;;;;;;;;;4950205;28;20051;-86
2021/07/05 07:39:26;;;;;;;10.32;7.10;;;;;;;;;;4950990;28;20062;-87
2021/07/05 07:41:52;;;;;;;8.88;5.78;;;;;;;;;;4953074;28;20500;-87
2021/07/05 07:44:19;;;;;;;10.63;6.93;;;;;;;;;;4968336;28;20063;-87
2021/07/05 07:46:45;;;;;;;11.25;7.60;;;;;;;;;;4952542;28;20047;-87
2021/07/05 07:49:11;;;;;;;11.10;7.20;;;;;;;;;;4953102;28;20058;-87
2021/07/05 07:51:37;;;;;;;9.38;6.47;;;;;;;;;;4953668;28;20097;-85
2021/07/05 07:54:03;;;;;;;10.88;6.88;;;;;;;;;;4954653;28;20047;-86
2021/07/05 07:56:30;;;;;;;7.95;6.38;;;;;;;;;;4973608;28;20178;-84
2021/07/05 07:58:59;;;;;;;7.57;5.95;;;;;;;;;;4971842;28;20061;-85
2021/07/05 08:01:27;;;;;;;12.15;6.65;;;;;;;;;;4972440;28;20141;-85
2021/07/05 08:03:53;;;;;;;8.82;6.22;;;;;;;;;;4961176;28;20495;-85
2021/07/05 08:06:20;;;;;;;9.25;6.07;;;;;;;;;;4953712;28;20070;-84
2021/07/05 08:08:49;;;;;;;8.13;5.50;;;;;;;;;;4953757;28;20134;-85
2021/07/05 08:11:15;;;;;;;9.68;5.75;;;;;;;;;;4968650;28;20145;-86
2021/07/05 08:13:41;;;;;;;9.30;5.43;;;;;;;;;;4951987;28;20107;-85
2021/07/05 08:16:07;;;;;;;8.32;5.20;;;;;;;;;;4934231;29;20063;-85
2021/07/05 08:18:33;;;;;;;8.73;5.13;;;;;;;;;;4935176;29;20051;-84
2021/07/05 08:21:00;;;;;;;8.52;5.78;;;;;;;;;;4953795;28;20082;-84
2021/07/05 08:23:26;;;;;;;9.68;6.38;;;;;;;;;;4952488;28;20065;-84
2021/07/05 08:25:53;;;;;;;9.85;6.30;;;;;;;;;;4950940;28;20060;-84
2021/07/05 08:28:19;;;;;;;8.95;6.85;;;;;;;;;;4963218;28;20448;-84
2021/07/05 08:30:45;;;;;;;9.70;7.10;;;;;;;;;;4967257;28;20118;-84
2021/07/05 08:33:11;;;;;;;10.10;7.45;;;;;;;;;;4949039;28;20075;-83
2021/07/05 08:35:38;;;;;;;13.35;8.40;;;;;;;;;;4946488;28;20058;-83
2021/07/05 08:38:04;;;;;;;13.82;8.60;;;;;;;;;;4968429;28;20138;-83
2021/07/05 08:40:30;;;;;;;14.23;10.48;;;;;;;;;;4953545;28;20098;-85
2021/07/05 08:42:57;;;;;;;13.55;9.38;;;;;;;;;;4952740;28;20043;-84
2021/07/05 08:45:24;;;;;;;12.77;9.60;;;;;;;;;;4952437;28;20100;-85
2021/07/05 08:47:53;;;;;;;14.55;8.77;;;;;;;;;;4952994;28;20055;-85
2021/07/05 08:50:20;;;;;;;13.20;10.02;;;;;;;;;;4952266;28;20102;-88
2021/07/05 08:52:46;;;;;;;12.52;10.57;;;;;;;;;;4951980;28;20408;-89
2021/07/05 08:55:18;;;;;;;14.65;10.55;;;;;;;;;;4952895;28;20082;-87
2021/07/05 08:57:45;;;;;;;15.13;10.93;;;;;;;;;;4951508;28;20058;-86
2021/07/05 09:00:18;;;;;;;16.15;11.05;;;;;;;;;;4953031;28;20059;-86
2021/07/05 09:02:45;;;;;;;15.38;11.57;;;;;;;;;;4951611;28;20047;-86
2021/07/05 09:05:12;;;;;;;15.57;11.57;;;;;;;;;;4951817;28;20048;-88
2021/07/05 09:07:54;;;;;;;18.15;11.38;;;;;;;;;;4971894;28;20047;-85
2021/07/05 09:10:20;;;;;;;14.35;10.25;;;;;;;;;;4938633;28;20056;-84
2021/07/05 09:12:46;;;;;;;16.05;10.65;;;;;;;;;;4952020;28;20491;-84
2021/07/05 09:15:13;;;;;;;16.73;10.98;;;;;;;;;;4952464;28;20043;-84
2021/07/05 09:17:41;;;;;;;16.30;11.50;;;;;;;;;;4956679;28;20039;-83
2021/07/05 09:20:26;;;;;;;15.25;11.02;;;;;;;;;;4958927;28;20495;-84
2021/07/05 09:23:08;;;;;;;14.90;11.23;;;;;;;;;;4918622;29;20416;-84
2021/07/05 09:25:38;;;;;;;15.93;11.48;;;;;;;;;;4933025;29;20052;-83
2021/07/05 09:28:04;;;;;;;16.40;11.93;;;;;;;;;;4937141;28;20496;-87
2021/07/05 09:30:36;;;;;;;14.45;10.93;;;;;;;;;;4955483;28;20066;-84
2021/07/05 09:33:15;;;;;;;16.20;11.68;;;;;;;;;;4951125;28;20055;-86
2021/07/05 09:35:41;;;;;;;18.10;11.95;;;;;;;;;;4945522;28;20059;-84
2021/07/05 09:38:07;;;;;;;16.92;11.60;;;;;;;;;;4960936;28;20062;-85
2021/07/05 09:40:33;;;;;;;17.52;12.93;;;;;;;;;;4951255;28;20055;-83
2021/07/05 09:42:59;;;;;;;19.83;11.05;;;;;;;;;;4950740;28;20400;-84
2021/07/05 09:45:33;;;;;;;18.88;11.90;;;;;;;;;;4948628;28;20058;-83
2021/07/05 09:48:18;;;;;;;16.77;10.30;;;;;;;;;;4960564;28;20062;-83
2021/07/05 09:50:46;;;;;;;19.67;10.68;;;;;;;;;;4948499;28;20069;-84
2021/07/05 09:53:30;;;;;;;17.88;11.30;;;;;;;;;;4953247;28;20058;-83
2021/07/05 09:56:15;;;;;;;15.77;9.82;;;;;;;;;;4950906;28;20078;-84
2021/07/05 09:58:42;;;;;;;13.68;9.77;;;;;;;;;;4947658;28;20138;-84
2021/07/05 10:01:08;;;;;;;18.40;9.85;;;;;;;;;;4951263;28;20105;-84
2021/07/05 10:03:36;;;;;;;17.98;10.20;;;;;;;;;;4950406;28;20074;-84
2021/07/05 10:06:15;;;;;;;15.55;9.10;;;;;;;;;;4951184;28;20110;-85
2021/07/05 10:08:42;;;;;;;16.67;8.43;;;;;;;;;;4951611;28;20062;-83
2021/07/05 10:11:08;;;;;;;12.13;8.45;;;;;;;;;;4959742;28;20047;-84
2021/07/05 10:13:34;;;;;;;13.60;7.60;;;;;;;;;;4959007;28;20414;-86
2021/07/05 10:16:06;;;;;;;13.23;7.40;;;;;;;;;;4953966;28;20053;-85
2021/07/05 10:18:33;;;;;;;10.85;7.22;;;;;;;;;;4949594;28;20066;-89
2021/07/05 10:20:59;;;;;;;12.40;7.60;;;;;;;;;;4961174;28;20054;-86
2021/07/05 10:23:26;;;;;;;11.05;7.78;;;;;;;;;;4949550;28;20054;-86
2021/07/05 10:25:52;;;;;;;14.80;7.63;;;;;;;;;;4954646;28;20047;-85
2021/07/05 10:28:19;;;;;;;13.82;7.63;;;;;;;;;;4957081;28;20054;-85
2021/07/05 10:30:51;;;;;;;17.00;8.23;;;;;;;;;;4959788;28;20055;-90
2021/07/05 10:33:17;;;;;;;16.20;8.00;;;;;;;;;;4957229;28;20078;-85
2021/07/05 10:35:52;;;;;;;15.27;8.05;;;;;;;;;;4966130;28;20054;-83
2021/07/05 10:38:21;;;;;;;15.20;8.02;;;;;;;;;;4951546;28;20059;-84
2021/07/05 10:40:51;;;;;;;11.57;7.13;;;;;;;;;;4950841;28;20074;-90
2021/07/05 10:43:19;;;;;;;12.75;7.88;;;;;;;;;;4952218;28;20047;-85
2021/07/05 10:45:49;;;;;;;14.30;7.82;;;;;;;;;;4949019;28;20077;-84
2021/07/05 10:48:17;;;;;;;15.05;7.93;;;;;;;;;;4936500;28;20056;-84
2021/07/05 10:50:46;;;;;;;13.52;7.32;;;;;;;;;;4951612;28;20499;-84
2021/07/05 10:53:14;;;;;;;10.90;7.13;;;;;;;;;;4951044;28;20055;-84
2021/07/05 10:55:42;;;;;;;13.02;7.25;;;;;;;;;;4951640;28;20067;-83
2021/07/05 10:58:27;;;;;;;12.23;7.10;;;;;;;;;;4951844;28;20058;-84
2021/07/05 11:01:03;;;;;;;14.45;7.53;;;;;;;;;;4937211;28;20062;-85
2021/07/05 11:03:39;;;;;;;16.73;8.43;;;;;;;;;;4951205;28;20051;-83
2021/07/05 11:06:09;;;;;;;12.00;8.05;;;;;;;;;;4950633;28;20059;-82
2021/07/05 11:08:39;;;;;;;11.68;7.78;;;;;;;;;;4950517;29;20053;-84
2021/07/05 11:11:15;;;;;;;13.45;8.35;;;;;;;;;;4949521;29;20051;-84
2021/07/05 11:13:41;;;;;;;14.40;8.93;;;;;;;;;;4950611;28;20500;-81
2021/07/05 11:16:08;;;;;;;14.32;7.93;;;;;;;;;;4950672;28;20051;-85
2021/07/05 11:18:37;;;;;;;15.60;7.70;;;;;;;;;;4950293;28;20503;-84
2021/07/05 11:21:11;;;;;;;15.10;8.55;;;;;;;;;;4949695;29;20130;-85
2021/07/05 11:23:59;;;;;;;13.82;8.40;;;;;;;;;;4949295;28;20055;-84
2021/07/05 11:26:45;;;;;;;14.43;9.27;;;;;;;;;;4944935;28;20109;-85
2021/07/05 11:29:17;;;;;;;15.15;8.82;;;;;;;;;;4957114;28;20116;-83
2021/07/05 11:31:53;;;;;;;14.32;8.27;;;;;;;;;;4965414;28;20077;-88
2021/07/05 11:34:29;;;;;;;14.48;8.25;;;;;;;;;;4947576;28;20051;-89
2021/07/05 11:37:13;;;;;;;13.75;8.00;;;;;;;;;;4947356;28;20051;-88
2021/07/05 11:39:39;;;;;;;10.65;6.43;;;;;;;;;;4948619;28;20070;-84
2021/07/05 11:42:05;;;;;;;11.60;6.18;;;;;;;;;;4946087;28;20051;-87
2021/07/05 11:44:48;;;;;;;10.65;5.80;;;;;;;;;;4944236;28;20403;-88
2021/07/05 11:47:50;;;;;;;11.65;5.85;;;;;;;;;;4938812;28;20106;-88
2021/07/05 11:50:21;;;;;;;11.27;5.30;;;;;;;;;;4888369;29;20056;-87
2021/07/05 11:52:48;;;;;;;10.73;5.03;;;;;;;;;;4936594;28;20062;-87
2021/07/05 11:55:16;;;;;;;13.32;5.30;;;;;;;;;;4943398;28;20629;-87
2021/07/05 11:57:47;;;;;;;11.82;6.80;;;;;;;;;;4949600;28;20056;-88
2021/07/05 12:00:14;;;;;;;11.00;7.03;;;;;;;;;;4946374;28;20055;-87
2021/07/05 12:02:40;;;;;;;15.43;7.30;;;;;;;;;;4949787;28;20050;-86
2021/07/05 12:05:07;;;;;;;13.93;6.65;;;;;;;;;;4949404;28;20051;-89
2021/07/05 12:07:34;;;;;;;11.80;6.65;;;;;;;;;;4944492;28;20063;-89
2021/07/05 12:10:00;;;;;;;9.68;6.30;;;;;;;;;;4946186;28;20063;-89
2021/07/05 12:12:30;;;;;;;14.65;7.18;;;;;;;;;;4947008;28;20055;-89
2021/07/05 12:14:56;;;;;;;11.15;6.93;;;;;;;;;;4942511;28;20051;-89
2021/07/05 12:17:23;;;;;;;9.60;5.90;;;;;;;;;;4948267;28;20055;-89
2021/07/05 12:19:52;;;;;;;11.35;5.80;;;;;;;;;;4944567;28;20055;-90
2021/07/05 12:22:20;;;;;;;9.40;5.65;;;;;;;;;;4955512;28;20054;-87
2021/07/05 12:24:48;;;;;;;10.02;6.03;;;;;;;;;;4953540;28;20047;-88
2021/07/05 12:27:16;;;;;;;8.75;5.57;;;;;;;;;;4939135;28;20216;-88
2021/07/05 12:29:49;;;;;;;14.07;6.30;;;;;;;;;;4944338;28;20059;-88
2021/07/05 12:32:17;;;;;;;10.57;5.83;;;;;;;;;;4949024;28;20126;-88
2021/07/05 12:35:02;;;;;;;10.57;5.60;;;;;;;;;;4950892;28;20140;-87
2021/07/05 12:37:45;;;;;;;13.32;7.28;;;;;;;;;;4954989;28;20511;-87
2021/07/05 12:40:18;;;;;;;12.02;6.57;;;;;;;;;;4952071;28;20058;-83
2021/07/05 12:42:52;;;;;;;12.25;7.07;;;;;;;;;;4953659;28;20063;-85
2021/07/05 12:45:21;;;;;;;12.32;6.13;;;;;;;;;;4942185;28;20058;-85
2021/07/05 12:47:47;;;;;;;20.05;7.70;;;;;;;;;;4951499;28;20411;-88
2021/07/05 12:50:15;;;;;;;13.55;6.72;;;;;;;;;;4950955;28;20673;-88
2021/07/05 12:52:41;;;;;;;15.25;7.28;;;;;;;;;;4950297;28;20063;-86
2021/07/05 12:55:14;;;;;;;13.35;7.60;;;;;;;;;;4951460;28;20514;-86
2021/07/05 12:57:50;;;;;;;13.15;6.95;;;;;;;;;;4949374;28;20059;-85
2021/07/05 13:00:17;;;;;;;12.55;7.63;;;;;;;;;;4933032;28;20056;-86
2021/07/05 13:02:43;;;;;;;11.65;6.75;;;;;;;;;;4933620;28;20130;-86
2021/07/05 13:05:13;;;;;;;11.75;6.40;;;;;;;;;;4934272;28;20066;-86
2021/07/05 13:07:40;;;;;;;10.82;7.07;;;;;;;;;;4953204;28;20055;-87
2021/07/05 13:10:07;;;;;;;10.73;6.63;;;;;;;;;;4951787;28;20086;-86
2021/07/05 13:12:35;;;;;;;11.30;6.13;;;;;;;;;;4951447;28;20047;-87
2021/07/05 13:15:12;;;;;;;10.85;5.97;;;;;;;;;;4950584;28;20448;-84
2021/07/05 13:17:38;;;;;;;12.85;6.45;;;;;;;;;;4950972;28;20134;-85
2021/07/05 13:20:12;;;;;;;9.48;5.03;;;;;;;;;;4952023;28;20058;-86
2021/07/05 13:22:48;;;;;;;9.52;5.40;;;;;;;;;;4952622;28;20051;-86
2021/07/05 13:25:16;;;;;;;11.23;5.28;;;;;;;;;;4946720;29;20656;-85
2021/07/05 13:27:42;;;;;;;9.70;5.15;;;;;;;;;;4933404;29;20488;-83
2021/07/05 13:30:12;;;;;;;13.05;6.05;;;;;;;;;;4932654;29;20432;-83
2021/07/05 13:32:50;;;;;;;9.55;5.03;;;;;;;;;;4948231;28;20556;-83
2021/07/05 13:35:16;;;;;;;12.25;5.97;;;;;;;;;;4932774;28;20106;-83
2021/07/05 13:37:46;;;;;;;11.20;5.72;;;;;;;;;;4952395;28;20058;-84
2021/07/05 13:40:14;;;;;;;11.90;5.65;;;;;;;;;;4964881;28;20411;-85
2021/07/05 13:42:45;;;;;;;12.93;5.95;;;;;;;;;;4946148;28;20455;-82
2021/07/05 13:45:17;;;;;;;13.50;6.30;;;;;;;;;;4951222;28;20063;-83
2021/07/05 13:47:47;;;;;;;15.13;6.35;;;;;;;;;;4946022;28;20048;-82
2021/07/05 13:50:14;;;;;;;12.93;6.10;;;;;;;;;;4940701;28;20059;-84
2021/07/05 13:52:47;;;;;;;12.07;6.00;;;;;;;;;;4944196;28;20051;-81
2021/07/05 13:55:22;;;;;;;10.83;5.73;;;;;;;;;;4942917;28;20479;-83
2021/07/05 13:57:49;;;;;;;10.10;6.03;;;;;;;;;;4950166;28;20047;-83
2021/07/05 14:00:16;;;;;;;13.32;7.15;;;;;;;;;;4947543;28;20074;-84
2021/07/05 14:02:43;;;;;;;10.52;6.18;;;;;;;;;;4950102;28;20055;-81
2021/07/05 14:05:16;;;;;;;10.30;5.72;;;;;;;;;;4949577;29;20051;-82
2021/07/05 14:07:42;;;;;;;11.30;5.70;;;;;;;;;;4968952;28;20054;-81
2021/07/05 14:10:09;;;;;;;10.32;6.18;;;;;;;;;;4953738;28;20134;-82
2021/07/05 14:12:36;;;;;;;9.90;5.72;;;;;;;;;;4950157;28;20055;-83
2021/07/05 14:15:02;;;;;;;10.27;6.03;;;;;;;;;;4951487;28;20148;-82
2021/07/05 14:17:28;;;;;;;11.93;6.45;;;;;;;;;;4951487;28;20129;-82
2021/07/05 14:19:55;;;;;;;10.77;6.82;;;;;;;;;;4945012;28;20052;-83
2021/07/05 14:22:21;;;;;;;10.40;6.72;;;;;;;;;;4950174;28;20062;-84
2021/07/05 14:24:47;;;;;;;13.93;7.43;;;;;;;;;;4951753;28;20146;-86
2021/07/05 14:27:14;;;;;;;10.57;7.50;;;;;;;;;;4951525;28;20051;-85
2021/07/05 14:29:41;;;;;;;11.95;7.20;;;;;;;;;;4951826;28;20138;-82
2021/07/05 14:32:07;;;;;;;10.85;7.20;;;;;;;;;;4935665;29;20052;-85